createdAt,value
2023-01-30T00:02:46.851Z,102990.32
2023-01-30T00:06:16.073Z,102998.55
2023-01-30T00:09:45.020Z,102999.45
2023-01-30T00:13:13.837Z,103003.27
2023-01-30T00:16:35.150Z,102997.45
2023-01-30T00:19:57.838Z,102996.04
2023-01-30T00:23:26.925Z,102994.80
2023-01-30T00:26:56.633Z,102993.58
2023-01-30T00:30:13.162Z,102987.70
2023-01-30T00:33:41.352Z,102984.16
2023-01-30T00:37:10.843Z,102987.77
2023-01-30T00:40:40.045Z,102980.34
2023-01-30T00:44:21.022Z,102974.65
2023-01-30T00:47:50.726Z,102972.27
2023-01-30T00:51:19.607Z,102972.20
2023-01-30T00:54:42.602Z,102962.85
2023-01-30T00:58:11.873Z,102961.02
2023-01-30T01:01:40.966Z,102954.70
2023-01-30T01:04:52.808Z,102959.77
2023-01-30T01:08:14.641Z,102956.52
2023-01-30T01:11:47.118Z,102953.82
2023-01-30T01:15:16.663Z,102952.90
2023-01-30T01:18:46.355Z,102950.58
2023-01-30T01:22:15.917Z,102944.02
2023-01-30T01:25:28.244Z,102942.86
2023-01-30T01:28:56.533Z,102947.66
2023-01-30T01:32:25.757Z,102945.61
2023-01-30T01:35:53.975Z,102947.81
2023-01-30T01:39:23.214Z,102951.35
2023-01-30T01:42:51.906Z,102953.77
2023-01-30T01:46:23.374Z,102951.60
2023-01-30T01:50:01.064Z,102949.41
2023-01-30T01:53:10.812Z,102948.86
2023-01-30T01:56:24.898Z,102948.92
2023-01-30T01:59:48.238Z,102942.66
2023-01-30T02:02:57.444Z,102945.23
2023-01-30T02:06:07.916Z,102944.54
2023-01-30T02:09:37.036Z,102949.68
2023-01-30T02:13:07.156Z,102953.65
2023-01-30T02:16:36.757Z,102958.98
2023-01-30T02:20:12.120Z,102961.71
2023-01-30T02:23:44.926Z,102958.51
2023-01-30T02:27:27.126Z,102953.79
2023-01-30T02:31:00.702Z,102952.10
2023-01-30T02:34:32.518Z,102957.00
2023-01-30T02:38:03.870Z,102950.45
2023-01-30T02:41:33.376Z,102949.38
2023-01-30T02:44:37.940Z,102954.55
2023-01-30T02:48:16.692Z,102949.35
2023-01-30T02:51:52.309Z,102948.66
2023-01-30T02:54:39.217Z,102951.64
2023-01-30T02:58:07.948Z,102950.42
2023-01-30T03:01:57.739Z,102947.05
2023-01-30T03:05:41.330Z,102947.29
2023-01-30T03:09:11.647Z,102946.70
2023-01-30T03:12:46.543Z,102951.13
2023-01-30T03:16:16.351Z,102957.07
2023-01-30T03:19:45.037Z,102957.29
2023-01-30T03:23:13.800Z,102954.08
2023-01-30T03:26:26.816Z,102959.41
2023-01-30T03:29:48.907Z,102953.04
2023-01-30T03:33:17.718Z,102950.38
2023-01-30T03:36:40.717Z,102954.15
2023-01-30T03:40:10.011Z,102958.37
2023-01-30T03:43:38.681Z,102957.29
2023-01-30T03:47:06.826Z,102949.94
2023-01-30T03:50:36.090Z,102952.23
2023-01-30T03:53:55.409Z,102954.08
2023-01-30T03:57:24.466Z,102962.64
2023-01-30T04:00:46.987Z,102964.19
2023-01-30T04:04:16.081Z,102964.13
2023-01-30T04:07:35.577Z,102962.86
2023-01-30T04:11:04.724Z,102962.48
2023-01-30T04:14:33.926Z,102959.05
2023-01-30T04:18:03.580Z,102956.87
2023-01-30T04:21:32.462Z,102958.83
2023-01-30T04:25:01.633Z,102958.08
2023-01-30T04:28:30.977Z,102968.52
2023-01-30T04:31:59.885Z,102968.95
2023-01-30T04:35:29.239Z,102972.65
2023-01-30T04:38:58.757Z,102983.02
2023-01-30T04:42:27.501Z,102982.98
2023-01-30T04:45:56.863Z,102985.77
2023-01-30T04:49:26.160Z,102983.55
2023-01-30T04:52:55.129Z,102977.12
2023-01-30T04:56:54.798Z,102981.67
2023-01-30T05:00:02.541Z,102983.88
2023-01-30T05:03:31.528Z,102989.65
2023-01-30T05:06:59.902Z,102992.23
2023-01-30T05:10:28.773Z,102996.75
2023-01-30T05:13:57.922Z,102994.36
2023-01-30T05:17:27.113Z,102989.85
2023-01-30T05:20:49.929Z,102990.08
2023-01-30T05:24:18.811Z,102993.79
2023-01-30T05:27:47.771Z,103000.05
2023-01-30T05:31:16.382Z,102996.41
2023-01-30T05:34:31.068Z,102994.34
2023-01-30T05:38:00.277Z,102993.02
2023-01-30T05:41:28.989Z,102996.38
2023-01-30T05:44:58.372Z,103000.48
2023-01-30T05:48:27.436Z,103000.23
2023-01-30T05:51:56.567Z,103001.16
2023-01-30T05:55:18.813Z,103006.64
2023-01-30T05:58:40.643Z,103007.23
2023-01-30T06:02:11.104Z,103003.69
2023-01-30T06:05:40.135Z,103004.05
2023-01-30T06:08:59.171Z,103005.83
2023-01-30T06:12:28.169Z,103001.42
2023-01-30T06:15:55.883Z,102997.30
2023-01-30T06:19:24.968Z,103000.84
2023-01-30T06:22:53.877Z,102993.06
2023-01-30T06:26:26.274Z,102991.31
2023-01-30T06:29:55.167Z,102988.22
2023-01-30T06:33:24.223Z,102998.75
2023-01-30T06:36:53.301Z,103005.61
2023-01-30T06:40:22.102Z,103008.73
2023-01-30T06:43:51.364Z,103012.98
2023-01-30T06:47:20.152Z,103025.89
2023-01-30T06:50:48.934Z,103024.99
2023-01-30T06:54:17.873Z,103020.50
2023-01-30T06:57:46.733Z,103015.14
2023-01-30T07:01:16.539Z,103016.08
2023-01-30T07:04:35.885Z,103012.13
2023-01-30T07:08:05.066Z,103008.46
2023-01-30T07:11:33.921Z,103003.96
2023-01-30T07:15:03.942Z,103001.07
2023-01-30T07:18:32.777Z,103006.92
2023-01-30T07:22:03.363Z,103009.42
2023-01-30T07:25:31.403Z,103004.14
2023-01-30T07:29:00.878Z,103006.84
2023-01-30T07:32:29.303Z,103006.62
2023-01-30T07:35:58.718Z,103000.02
2023-01-30T07:39:27.889Z,103000.92
2023-01-30T07:42:57.279Z,103000.13
2023-01-30T07:46:29.395Z,103008.25
2023-01-30T07:49:58.579Z,103006.09
2023-01-30T07:53:27.543Z,103002.82
2023-01-30T07:56:56.610Z,102982.55
2023-01-30T08:00:06.115Z,102986.90
2023-01-30T08:03:35.179Z,102996.38
2023-01-30T08:07:04.218Z,103000.09
2023-01-30T08:10:42.214Z,102996.27
2023-01-30T08:14:12.681Z,103000.85
2023-01-30T08:17:34.381Z,102990.27
2023-01-30T08:21:03.902Z,102991.27
2023-01-30T08:24:33.398Z,102989.40
2023-01-30T08:27:55.374Z,102988.37
2023-01-30T08:31:24.606Z,102988.80
2023-01-30T08:34:53.749Z,102990.73
2023-01-30T08:38:22.461Z,102990.55
2023-01-30T08:41:51.351Z,102989.08
2023-01-30T08:45:20.642Z,102986.83
2023-01-30T08:48:50.405Z,102990.03
2023-01-30T08:52:19.556Z,102988.33
2023-01-30T08:55:32.250Z,102977.76
2023-01-30T08:59:01.494Z,102971.83
2023-01-30T09:02:31.116Z,102983.69
2023-01-30T09:06:00.310Z,102985.62
2023-01-30T09:09:19.552Z,102978.66
2023-01-30T09:12:48.351Z,102971.30
2023-01-30T09:16:00.046Z,102979.16
2023-01-30T09:19:29.212Z,102973.11
2023-01-30T09:22:58.466Z,102970.50
2023-01-30T09:26:27.604Z,102973.98
2023-01-30T09:29:56.909Z,102979.59
2023-01-30T09:33:18.699Z,102985.14
2023-01-30T09:36:47.973Z,102990.34
2023-01-30T09:40:17.509Z,102991.14
2023-01-30T09:44:24.644Z,102992.04
2023-01-30T09:47:48.932Z,102995.32
2023-01-30T09:51:36.619Z,103000.45
2023-01-30T09:55:06.040Z,102997.70
2023-01-30T09:58:34.711Z,102993.36
2023-01-30T10:02:09.723Z,102993.61
2023-01-30T10:05:38.850Z,103001.30
2023-01-30T10:09:20.474Z,103000.11
2023-01-30T10:12:55.768Z,102989.08
2023-01-30T10:16:31.211Z,102983.95
2023-01-30T10:20:01.619Z,102975.82
2023-01-30T10:23:36.914Z,102973.92
2023-01-30T10:27:12.065Z,102978.34
2023-01-30T10:30:41.219Z,102981.45
2023-01-30T10:34:15.542Z,102984.86
2023-01-30T10:38:09.694Z,102992.19
2023-01-30T10:41:37.864Z,103000.38
2023-01-30T10:45:07.192Z,103012.99
2023-01-30T10:48:44.120Z,103017.39
2023-01-30T10:52:13.220Z,103012.40
2023-01-30T10:55:53.883Z,103015.16
2023-01-30T10:59:40.976Z,103018.86
2023-01-30T11:03:25.161Z,103020.14
2023-01-30T11:06:49.637Z,103020.60
2023-01-30T11:10:24.678Z,103016.84
2023-01-30T11:14:01.077Z,103021.48
2023-01-30T11:17:30.921Z,103020.56
2023-01-30T11:21:00.140Z,103020.80
2023-01-30T11:24:29.343Z,103015.02
2023-01-30T11:27:53.337Z,103014.34
2023-01-30T11:31:38.973Z,103014.39
2023-01-30T11:35:15.392Z,103026.31
2023-01-30T11:39:02.211Z,103022.27
2023-01-30T11:42:30.247Z,103021.19
2023-01-30T11:46:02.570Z,103021.04
2023-01-30T11:49:47.118Z,103017.67
2023-01-30T11:53:26.886Z,103018.70
2023-01-30T11:57:05.009Z,103021.34
2023-01-30T12:00:40.131Z,103011.58
2023-01-30T12:04:09.835Z,103006.95
2023-01-30T12:07:48.811Z,103004.30
2023-01-30T12:11:27.392Z,102992.63
2023-01-30T12:15:05.783Z,102990.95
2023-01-30T12:18:49.984Z,102991.41
2023-01-30T12:22:28.461Z,102994.40
2023-01-30T12:26:09.603Z,102991.77
2023-01-30T12:30:05.986Z,102996.90
2023-01-30T12:33:35.225Z,103001.66
2023-01-30T12:37:00.870Z,103000.95
2023-01-30T12:40:28.240Z,102999.08
2023-01-30T12:44:00.577Z,102997.77
2023-01-30T12:47:23.707Z,103002.52
2023-01-30T12:50:54.030Z,103001.52
2023-01-30T12:54:34.080Z,103007.80
2023-01-30T12:58:06.226Z,103007.08
2023-01-30T13:01:50.029Z,103010.48
2023-01-30T13:05:21.589Z,103015.48
2023-01-30T13:08:59.489Z,103024.36
2023-01-30T13:12:50.294Z,103028.32
2023-01-30T13:16:22.703Z,103023.67
2023-01-30T13:20:03.719Z,103027.42
2023-01-30T13:23:39.947Z,103023.06
2023-01-30T13:27:02.280Z,103019.52
2023-01-30T13:30:31.771Z,103012.66
2023-01-30T13:34:03.958Z,103008.93
2023-01-30T13:37:45.150Z,103000.89
2023-01-30T13:41:23.148Z,102997.77
2023-01-30T13:44:43.562Z,102999.40
2023-01-30T13:48:24.955Z,102997.81
2023-01-30T13:51:55.652Z,102993.02
2023-01-30T13:55:27.683Z,102994.86
2023-01-30T13:59:07.226Z,103001.25
2023-01-30T14:02:42.624Z,103018.09
2023-01-30T14:06:30.250Z,103022.42
2023-01-30T14:09:59.455Z,103019.52
2023-01-30T14:13:30.148Z,103020.88
2023-01-30T14:17:01.026Z,103032.34
2023-01-30T14:20:35.823Z,103036.91
2023-01-30T14:24:10.768Z,103033.02
2023-01-30T14:28:04.244Z,103023.43
2023-01-30T14:31:33.215Z,103017.27
2023-01-30T14:35:21.260Z,103021.58
2023-01-30T14:38:53.512Z,103017.17
2023-01-30T14:42:29.275Z,103020.86
2023-01-30T14:46:01.366Z,103026.03
2023-01-30T14:49:42.939Z,103035.15
2023-01-30T14:53:23.751Z,103030.90
2023-01-30T14:56:48.545Z,103015.61
2023-01-30T15:00:22.994Z,103007.73
2023-01-30T15:03:52.356Z,102997.77
2023-01-30T15:07:21.489Z,103002.29
2023-01-30T15:11:05.973Z,103009.59
2023-01-30T15:14:40.981Z,102996.97
2023-01-30T15:18:11.337Z,102986.05
2023-01-30T15:21:46.411Z,102975.74
2023-01-30T15:25:21.519Z,102974.80
2023-01-30T15:28:56.342Z,102974.84
2023-01-30T15:32:43.928Z,102973.19
2023-01-30T15:36:18.664Z,102972.59
2023-01-30T15:39:47.711Z,102967.91
2023-01-30T15:43:16.778Z,102962.14
2023-01-30T15:46:44.634Z,102966.08
2023-01-30T15:50:14.101Z,102959.84
2023-01-30T15:53:38.366Z,102963.48
2023-01-30T15:56:52.175Z,102964.86
2023-01-30T16:00:39.120Z,102967.08
2023-01-30T16:04:08.140Z,102970.32
2023-01-30T16:07:36.965Z,102962.55
2023-01-30T16:11:06.149Z,102955.81
2023-01-30T16:14:34.929Z,102954.37
2023-01-30T16:18:05.646Z,102956.60
2023-01-30T16:21:38.074Z,102945.94
2023-01-30T16:25:19.141Z,102939.32
2023-01-30T16:28:48.473Z,102941.06
2023-01-30T16:32:08.129Z,102941.30
2023-01-30T16:35:35.924Z,102937.92
2023-01-30T16:39:10.453Z,102941.76
2023-01-30T16:42:39.466Z,102944.94
2023-01-30T16:46:17.946Z,102942.93
2023-01-30T16:49:32.327Z,102947.19
2023-01-30T16:53:10.590Z,102951.36
2023-01-30T16:56:40.194Z,102951.14
2023-01-30T17:00:12.498Z,102952.02
2023-01-30T17:03:38.451Z,102950.16
2023-01-30T17:07:13.872Z,102943.95
2023-01-30T17:10:42.657Z,102949.13
2023-01-30T17:14:15.532Z,102949.38
2023-01-30T17:17:40.267Z,102952.44
2023-01-30T17:21:09.615Z,102955.67
2023-01-30T17:24:38.641Z,102949.02
2023-01-30T17:28:07.359Z,102950.48
2023-01-30T17:31:37.035Z,102959.07
2023-01-30T17:35:06.540Z,102970.39
2023-01-30T17:38:28.262Z,102975.33
2023-01-30T17:42:00.175Z,102978.02
2023-01-30T17:45:29.194Z,102974.27
2023-01-30T17:48:57.987Z,102971.08
2023-01-30T17:52:27.636Z,102968.59
2023-01-30T17:55:49.578Z,102967.90
2023-01-30T17:59:18.501Z,102964.23
2023-01-30T18:02:47.555Z,102963.70
2023-01-30T18:06:16.889Z,102948.84
2023-01-30T18:09:45.995Z,102938.27
2023-01-30T18:13:15.223Z,102935.00
2023-01-30T18:16:44.398Z,102945.63
2023-01-30T18:20:16.504Z,102948.67
2023-01-30T18:23:36.191Z,102948.73
2023-01-30T18:27:05.070Z,102955.80
2023-01-30T18:30:34.070Z,102957.59
2023-01-30T18:34:04.346Z,102959.36
2023-01-30T18:37:33.085Z,102961.96
2023-01-30T18:41:02.225Z,102958.77
2023-01-30T18:44:37.701Z,102960.82
2023-01-30T18:48:07.014Z,102964.62
2023-01-30T18:51:35.946Z,102958.41
2023-01-30T18:55:05.291Z,102954.80
2023-01-30T18:58:34.359Z,102959.92
2023-01-30T19:02:06.360Z,102957.73
2023-01-30T19:05:35.364Z,102960.90
2023-01-30T19:09:04.517Z,102964.54
2023-01-30T19:12:31.753Z,102965.75
2023-01-30T19:16:01.195Z,102955.16
2023-01-30T19:19:29.884Z,102951.98
2023-01-30T19:22:51.934Z,102952.68
2023-01-30T19:26:23.514Z,102951.45
2023-01-30T19:29:52.477Z,102953.24
2023-01-30T19:33:21.557Z,102956.41
2023-01-30T19:36:59.512Z,102955.86
2023-01-30T19:40:29.005Z,102958.65
2023-01-30T19:43:58.503Z,102954.95
2023-01-30T19:47:27.833Z,102955.98
2023-01-30T19:50:56.862Z,102950.00
2023-01-30T19:54:26.072Z,102954.44
2023-01-30T19:57:55.324Z,102954.35
2023-01-30T20:01:25.018Z,102946.64
2023-01-30T20:04:57.114Z,102946.58
2023-01-30T20:08:32.633Z,102943.11
2023-01-30T20:12:08.236Z,102941.09
2023-01-30T20:15:30.732Z,102936.84
2023-01-30T20:18:59.768Z,102928.56
2023-01-30T20:22:19.627Z,102928.04
2023-01-30T20:25:44.197Z,102920.98
2023-01-30T20:29:10.198Z,102913.39
2023-01-30T20:32:29.576Z,102904.54
2023-01-30T20:35:59.335Z,102901.58
2023-01-30T20:39:28.345Z,102892.88
2023-01-30T20:42:57.393Z,102881.21
2023-01-30T20:50:14.507Z,102864.66
2023-01-30T20:53:46.836Z,102855.63
2023-01-30T20:57:18.700Z,102840.55
2023-01-30T21:00:48.430Z,102834.23
2023-01-30T21:04:17.837Z,102832.78
2023-01-30T21:07:47.153Z,102830.86
2023-01-30T21:11:16.586Z,102822.37
2023-01-30T21:14:26.687Z,102826.16
2023-01-30T21:17:55.675Z,102825.50
2023-01-30T21:21:24.902Z,102827.48
2023-01-30T21:24:54.137Z,102833.17
2023-01-30T21:28:16.027Z,102835.79
2023-01-30T21:31:47.871Z,102836.52
2023-01-30T21:35:17.273Z,102839.64
2023-01-30T21:38:44.405Z,102843.54
2023-01-30T21:42:18.877Z,102850.72
2023-01-30T21:45:48.789Z,102852.59
2023-01-30T21:49:18.240Z,102850.70
2023-01-30T21:52:31.753Z,102844.86
2023-01-30T21:55:44.026Z,102842.20
2023-01-30T21:59:13.514Z,102834.29
2023-01-30T22:02:42.989Z,102836.91
2023-01-30T22:06:12.502Z,102832.31
2023-01-30T22:09:31.932Z,102829.92
2023-01-30T22:13:00.616Z,102819.30
2023-01-30T22:16:29.788Z,102809.27
2023-01-30T22:19:58.942Z,102808.66
2023-01-30T22:23:28.279Z,102802.52
2023-01-30T22:26:57.354Z,102785.71
2023-01-30T22:29:49.749Z,102788.48
2023-01-30T22:33:14.413Z,102787.38
2023-01-30T22:36:44.056Z,102778.83
2023-01-30T22:40:12.530Z,102775.73
2023-01-30T22:43:42.197Z,102769.59
2023-01-30T22:47:14.095Z,102767.70
2023-01-30T22:50:43.325Z,102752.95
2023-01-30T22:54:12.695Z,102743.33
2023-01-30T22:57:41.972Z,102753.33
2023-01-30T23:01:00.667Z,102760.84
2023-01-30T23:04:29.925Z,102757.73
2023-01-30T23:07:59.328Z,102739.64
2023-01-30T23:11:31.753Z,102726.06
2023-01-30T23:15:00.941Z,102720.24
2023-01-30T23:18:28.404Z,102706.98
2023-01-30T23:25:40.286Z,102723.11
2023-01-30T23:29:09.642Z,102732.00
2023-01-30T23:32:42.095Z,102736.77
2023-01-30T23:36:11.391Z,102742.10
2023-01-30T23:39:40.664Z,102732.60
2023-01-30T23:43:09.767Z,102722.80
2023-01-30T23:46:39.159Z,102716.18
2023-01-30T23:50:08.566Z,102704.49
2023-01-30T23:54:08.084Z,102693.77
2023-01-30T23:57:27.303Z,102687.36
